createdAt,value
2023-03-01T00:01:07.873Z,1.45
2023-03-01T00:03:45.428Z,1.77
2023-03-01T00:06:21.892Z,1.60
2023-03-01T00:08:57.642Z,1.40
2023-03-01T00:11:33.010Z,1.50
2023-03-01T00:14:08.122Z,1.58
2023-03-01T00:16:43.606Z,1.38
2023-03-01T00:19:20.430Z,1.33
2023-03-01T00:21:52.948Z,1.10
2023-03-01T00:24:24.975Z,1.17
2023-03-01T00:27:00.408Z,1.40
2023-03-01T00:29:34.160Z,1.45
2023-03-01T00:32:07.504Z,1.58
2023-03-01T00:34:57.189Z,1.70
2023-03-01T00:37:32.780Z,1.48
2023-03-01T00:40:10.800Z,1.40
2023-03-01T00:42:44.000Z,1.63
2023-03-01T00:45:20.336Z,1.40
2023-03-01T00:47:53.693Z,1.52
2023-03-01T00:50:30.874Z,1.33
2023-03-01T00:53:04.680Z,1.50
2023-03-01T00:55:41.353Z,1.20
2023-03-01T00:58:14.284Z,1.38
2023-03-01T01:00:46.410Z,1.10
2023-03-01T01:03:20.623Z,1.27
2023-03-01T01:05:58.058Z,1.33
2023-03-01T01:08:31.533Z,1.40
2023-03-01T01:11:04.011Z,1.00
2023-03-01T01:13:35.321Z,1.35
2023-03-01T01:16:07.149Z,1.52
2023-03-01T01:18:39.244Z,1.27
2023-03-01T01:21:16.688Z,1.40
2023-03-01T01:23:52.167Z,1.33
2023-03-01T01:26:27.751Z,1.55
2023-03-01T01:29:01.756Z,1.30
2023-03-01T01:31:34.034Z,1.40
2023-03-01T01:34:08.530Z,1.27
2023-03-01T01:36:43.814Z,1.40
2023-03-01T01:39:16.186Z,1.30
2023-03-01T01:41:47.312Z,1.50
2023-03-01T01:44:23.761Z,1.40
2023-03-01T01:46:58.265Z,1.40
2023-03-01T01:49:37.711Z,1.17
2023-03-01T01:52:19.108Z,1.40
2023-03-01T01:57:26.790Z,1.50
2023-03-01T02:00:04.498Z,1.45
2023-03-01T02:02:35.898Z,1.30
2023-03-01T02:07:47.204Z,1.50
2023-03-01T02:10:18.485Z,1.50
2023-03-01T02:12:53.776Z,1.50
2023-03-01T02:15:27.512Z,1.45
2023-03-01T02:18:01.023Z,1.33
2023-03-01T02:20:38.820Z,1.15
2023-03-01T02:23:13.261Z,1.40
2023-03-01T02:25:54.172Z,1.38
2023-03-01T02:28:33.491Z,1.50
2023-03-01T02:31:22.547Z,1.40
2023-03-01T02:33:54.067Z,1.50
2023-03-01T02:36:29.786Z,1.50
2023-03-01T02:39:02.623Z,1.25
2023-03-01T02:41:40.963Z,1.40
2023-03-01T02:44:19.073Z,1.38
2023-03-01T02:46:54.062Z,1.38
2023-03-01T02:49:31.072Z,1.50
2023-03-01T02:52:42.366Z,1.65
2023-03-01T02:55:18.835Z,1.15
2023-03-01T02:57:56.735Z,1.50
2023-03-01T03:00:37.718Z,1.70
2023-03-01T03:03:10.533Z,1.50
2023-03-01T03:05:42.712Z,1.60
2023-03-01T03:08:16.718Z,1.60
2023-03-01T03:10:48.205Z,1.50
2023-03-01T03:15:52.810Z,1.30
2023-03-01T03:18:25.618Z,1.50
2023-03-01T03:20:57.807Z,1.55
2023-03-01T03:23:31.715Z,1.45
2023-03-01T03:26:06.525Z,1.58
2023-03-01T03:28:43.124Z,1.50
2023-03-01T03:31:19.776Z,1.33
2023-03-01T03:33:51.855Z,1.50
2023-03-01T03:36:26.047Z,1.58
2023-03-01T03:38:57.843Z,1.70
2023-03-01T03:41:30.125Z,1.60
2023-03-01T03:44:04.197Z,1.60
2023-03-01T03:46:40.128Z,1.25
2023-03-01T03:49:12.731Z,1.52
2023-03-01T03:51:46.981Z,1.50
2023-03-01T03:54:19.027Z,1.70
2023-03-01T03:56:52.072Z,1.90
2023-03-01T03:59:23.034Z,1.95
2023-03-01T04:01:57.588Z,1.65
2023-03-01T04:04:31.067Z,2.17
2023-03-01T04:07:03.332Z,1.87
2023-03-01T04:09:36.249Z,2.10
2023-03-01T04:12:07.561Z,2.25
2023-03-01T04:14:40.269Z,1.95
2023-03-01T04:17:13.609Z,2.20
2023-03-01T04:19:45.425Z,2.35
2023-03-01T04:22:21.931Z,2.28
2023-03-01T04:24:58.362Z,2.40
2023-03-01T04:27:34.706Z,2.33
2023-03-01T04:30:06.539Z,2.40
2023-03-01T04:32:43.465Z,2.45
2023-03-01T04:35:15.320Z,2.22
2023-03-01T04:37:47.625Z,2.70
2023-03-01T04:40:18.971Z,2.67
2023-03-01T04:42:53.259Z,2.35
2023-03-01T04:45:24.718Z,2.55
2023-03-01T04:48:01.129Z,2.17
2023-03-01T04:50:34.152Z,2.72
2023-03-01T04:53:05.784Z,2.85
2023-03-01T04:55:40.004Z,2.55
2023-03-01T04:58:11.164Z,2.60
2023-03-01T05:00:44.636Z,2.90
2023-03-01T05:03:19.698Z,2.50
2023-03-01T05:05:53.393Z,2.70
2023-03-01T05:08:25.507Z,2.45
2023-03-01T05:10:56.522Z,2.60
2023-03-01T05:13:28.032Z,2.72
2023-03-01T05:16:04.333Z,2.53
2023-03-01T05:18:38.596Z,2.65
2023-03-01T05:21:11.923Z,2.78
2023-03-01T05:23:43.352Z,2.78
2023-03-01T05:29:01.965Z,2.67
2023-03-01T05:31:32.405Z,2.90
2023-03-01T05:34:04.821Z,2.80
2023-03-01T05:36:35.880Z,2.78
2023-03-01T05:39:06.661Z,2.80
2023-03-01T05:41:38.246Z,2.85
2023-03-01T05:44:14.636Z,2.22
2023-03-01T05:46:44.230Z,2.88
2023-03-01T05:49:17.374Z,2.53
2023-03-01T05:51:51.868Z,2.53
2023-03-01T05:54:21.917Z,2.67
2023-03-01T05:56:51.811Z,2.50
2023-03-01T05:59:21.791Z,2.70
2023-03-01T06:01:51.688Z,2.85
2023-03-01T06:04:23.514Z,3.67
2023-03-01T06:06:53.452Z,2.53
2023-03-01T06:09:23.178Z,2.72
2023-03-01T06:11:53.603Z,2.75
2023-03-01T06:49:00.621Z,2.78
2023-03-01T06:51:30.516Z,2.70
2023-03-01T06:54:02.624Z,2.90
2023-03-01T06:56:32.424Z,2.90
2023-03-01T06:59:01.939Z,3.05
2023-03-01T07:01:31.750Z,2.85
2023-03-01T07:04:04.475Z,2.70
2023-03-01T07:06:33.917Z,2.88
2023-03-01T07:09:03.713Z,2.70
2023-03-01T07:11:33.061Z,3.20
2023-03-01T07:14:02.663Z,3.00
2023-03-01T07:16:32.358Z,3.75
2023-03-01T07:19:01.630Z,2.67
2023-03-01T07:21:35.093Z,2.83
2023-03-01T07:24:05.430Z,2.58
2023-03-01T07:35:11.549Z,2.90
2023-03-01T07:37:44.847Z,3.13
2023-03-01T07:40:17.219Z,2.90
2023-03-01T07:42:49.363Z,2.92
2023-03-01T07:45:19.158Z,2.70
2023-03-01T07:47:48.750Z,2.80
2023-03-01T07:50:19.277Z,2.78
2023-03-01T07:52:51.298Z,3.10
2023-03-01T07:55:21.683Z,3.20
2023-03-01T07:57:53.634Z,2.63
2023-03-01T08:00:23.231Z,2.80
2023-03-01T08:02:52.480Z,2.90
2023-03-01T08:05:24.635Z,3.05
2023-03-01T08:07:55.476Z,3.10
2023-03-01T08:10:24.964Z,2.70
2023-03-01T08:12:55.425Z,2.83
2023-03-01T08:15:26.893Z,2.92
2023-03-01T08:17:56.348Z,3.08
2023-03-01T08:20:25.843Z,2.88
2023-03-01T08:22:56.649Z,300.27
2023-03-01T08:25:26.402Z,286.20
2023-03-01T08:27:56.144Z,287.17
2023-03-01T08:30:25.883Z,293.98
2023-03-01T08:32:55.238Z,296.17
2023-03-01T08:35:25.050Z,295.70
2023-03-01T08:37:56.132Z,296.63
2023-03-01T08:40:25.823Z,296.17
2023-03-01T08:42:55.478Z,297.35
2023-03-01T08:45:24.609Z,297.30
2023-03-01T08:47:55.655Z,297.13
2023-03-01T08:50:25.569Z,297.40
2023-03-01T08:52:56.298Z,297.85
2023-03-01T08:55:25.321Z,297.57
2023-03-01T08:57:54.239Z,299.25
2023-03-01T09:00:24.361Z,296.33
2023-03-01T09:02:53.751Z,296.38
2023-03-01T09:09:38.764Z,300.63
2023-03-01T09:12:13.488Z,301.45
2023-03-01T09:14:43.332Z,300.75
2023-03-01T09:17:12.967Z,299.40
2023-03-01T09:19:43.861Z,298.98
2023-03-01T09:22:13.103Z,297.58
2023-03-01T09:24:43.840Z,301.58
2023-03-01T09:27:14.113Z,302.93
2023-03-01T09:29:43.140Z,303.17
2023-03-01T09:32:12.213Z,303.58
2023-03-01T09:34:54.937Z,303.65
2023-03-01T09:37:23.833Z,2.30
2023-03-01T09:39:54.271Z,2.67
2023-03-01T09:42:23.528Z,2.92
2023-03-01T09:44:58.787Z,2.53
2023-03-01T09:47:31.657Z,2.30
2023-03-01T09:50:07.864Z,2.80
2023-03-01T09:52:42.392Z,2.50
2023-03-01T09:55:15.327Z,2.60
2023-03-01T09:57:51.625Z,2.70
2023-03-01T10:00:31.589Z,2.47
2023-03-01T10:03:11.952Z,2.67
2023-03-01T10:05:49.921Z,2.65
2023-03-01T10:08:40.276Z,2.60
2023-03-01T10:11:35.245Z,303.42
2023-03-01T10:14:07.960Z,302.65
2023-03-01T10:16:44.409Z,7.85
2023-03-01T10:19:18.236Z,2.42
2023-03-01T10:21:49.370Z,3.60
2023-03-01T10:24:22.843Z,2.25
2023-03-01T10:26:57.676Z,304.52
2023-03-01T10:29:31.298Z,300.60
2023-03-01T10:32:00.928Z,302.17
2023-03-01T10:34:32.770Z,2.80
2023-03-01T10:37:13.088Z,2.75
2023-03-01T10:39:58.506Z,2.92
2023-03-01T10:42:33.054Z,2.60
2023-03-01T10:45:18.754Z,5.75
2023-03-01T10:47:47.715Z,2.67
2023-03-01T10:50:25.141Z,2.60
2023-03-01T10:53:02.153Z,2.55
2023-03-01T10:55:37.987Z,2.40
2023-03-01T10:58:21.037Z,301.02
2023-03-01T11:00:53.982Z,299.05
2023-03-01T11:03:27.338Z,295.92
2023-03-01T11:06:00.735Z,297.42
2023-03-01T11:08:40.011Z,214.45
2023-03-01T11:11:30.123Z,2.60
2023-03-01T11:14:10.503Z,2.60
2023-03-01T11:16:50.425Z,2.60
2023-03-01T11:32:17.520Z,2.35
2023-03-01T11:39:18.691Z,2.70
2023-03-01T12:39:19.988Z,3.10
2023-03-01T13:13:24.298Z,293.75
2023-03-01T13:15:54.864Z,2.67
2023-03-01T13:18:36.188Z,2.60
2023-03-01T13:21:06.697Z,2.70
2023-03-01T13:23:38.987Z,3.28
2023-03-01T13:26:14.732Z,3.58
2023-03-01T13:28:53.293Z,2.15
2023-03-01T13:32:02.870Z,2.58
2023-03-01T13:34:47.233Z,2.50
2023-03-01T13:37:26.945Z,2.35
2023-03-01T13:39:56.408Z,2.35
2023-03-01T13:42:41.040Z,2.17
2023-03-01T13:48:00.050Z,2.13
2023-03-01T13:50:36.544Z,2.55
2023-03-01T13:53:08.365Z,2.28
2023-03-01T13:55:44.265Z,2.22
2023-03-01T13:58:26.271Z,4.22
2023-03-01T14:01:01.918Z,298.25
2023-03-01T14:03:34.653Z,297.40
2023-03-01T14:06:19.098Z,296.67
2023-03-01T14:08:52.148Z,295.17
2023-03-01T14:11:36.161Z,2.00
2023-03-01T14:14:30.242Z,2.40
2023-03-01T14:17:16.426Z,2.22
2023-03-01T14:19:49.491Z,2.45
2023-03-01T14:22:24.840Z,2.70
2023-03-01T14:24:57.597Z,2.22
2023-03-01T14:27:29.500Z,2.13
2023-03-01T14:30:00.191Z,2.80
2023-03-01T14:32:33.895Z,2.23
2023-03-01T14:35:05.897Z,2.40
2023-03-01T14:37:36.606Z,2.28
2023-03-01T14:40:08.122Z,2.42
2023-03-01T14:45:10.189Z,2.22
2023-03-01T14:47:43.478Z,38.03
2023-03-01T14:50:24.636Z,2.53
2023-03-01T14:52:58.031Z,2.72
2023-03-01T14:55:32.380Z,2.63
2023-03-01T14:58:03.616Z,2.30
2023-03-01T15:00:35.852Z,2.53
2023-03-01T15:03:14.713Z,2.53
2023-03-01T15:05:45.996Z,2.47
2023-03-01T15:08:22.018Z,2.67
2023-03-01T15:11:03.127Z,2.25
2023-03-01T15:13:35.174Z,2.60
2023-03-01T15:16:16.664Z,2.70
2023-03-01T15:21:22.008Z,2.78
2023-03-01T15:23:54.485Z,2.70
2023-03-01T15:26:30.868Z,2.90
2023-03-01T15:29:06.069Z,2.58
2023-03-01T15:31:40.838Z,2.60
2023-03-01T15:34:26.503Z,2.80
2023-03-01T15:36:58.364Z,2.90
2023-03-01T15:39:40.374Z,2.50
2023-03-01T15:42:14.212Z,2.28
2023-03-01T15:47:42.270Z,2.17
2023-03-01T15:50:21.196Z,2.03
2023-03-01T15:52:50.869Z,3.00
2023-03-01T15:55:26.205Z,3.05
2023-03-01T15:58:03.343Z,3.00
2023-03-01T16:00:35.803Z,2.50
2023-03-01T16:03:05.206Z,2.40
2023-03-01T16:05:39.043Z,2.28
2023-03-01T16:08:10.890Z,2.50
2023-03-01T16:10:41.900Z,2.72
2023-03-01T16:13:12.795Z,2.10
2023-03-01T16:15:43.865Z,2.40
2023-03-01T16:18:15.708Z,2.13
2023-03-01T16:20:48.182Z,2.03
2023-03-01T16:23:20.036Z,2.15
2023-03-01T16:26:08.370Z,2.47
2023-03-01T16:28:42.600Z,2.15
2023-03-01T16:31:13.859Z,2.08
2023-03-01T16:33:49.018Z,2.55
2023-03-01T16:36:26.254Z,2.33
2023-03-01T16:38:57.487Z,2.47
2023-03-01T16:41:28.501Z,2.10
2023-03-01T16:44:00.602Z,2.13
2023-03-01T16:46:40.426Z,2.33
2023-03-01T16:49:11.985Z,2.17
2023-03-01T16:51:46.386Z,2.08
2023-03-01T16:54:17.273Z,2.10
2023-03-01T16:56:49.531Z,2.15
2023-03-01T16:59:23.368Z,2.35
2023-03-01T17:01:54.886Z,2.40
2023-03-01T17:04:25.851Z,2.40
2023-03-01T17:06:59.648Z,2.15
2023-03-01T17:09:31.602Z,2.45
2023-03-01T17:12:02.995Z,2.17
2023-03-01T17:14:33.978Z,2.30
2023-03-01T17:17:05.841Z,2.20
2023-03-01T17:19:37.158Z,3.15
2023-03-01T17:22:15.245Z,1.88
2023-03-01T17:24:49.672Z,2.08
2023-03-01T17:27:20.737Z,2.03
2023-03-01T17:29:54.574Z,1.90
2023-03-01T17:32:26.177Z,2.00
2023-03-01T17:34:57.925Z,2.30
2023-03-01T17:37:32.630Z,2.13
2023-03-01T17:40:04.125Z,2.20
2023-03-01T17:42:36.212Z,2.30
2023-03-01T17:45:08.886Z,2.30
2023-03-01T17:47:42.014Z,2.47
2023-03-01T17:50:15.016Z,2.67
2023-03-01T17:52:47.867Z,2.40
2023-03-01T17:55:19.656Z,2.50
2023-03-01T17:57:49.832Z,2.33
2023-03-01T18:00:24.624Z,2.60
2023-03-01T18:02:59.066Z,2.20
2023-03-01T18:05:33.754Z,2.45
2023-03-01T18:08:07.893Z,2.45
2023-03-01T18:10:39.559Z,2.35
2023-03-01T18:13:10.102Z,2.40
2023-03-01T18:15:49.136Z,2.53
2023-03-01T18:18:22.954Z,2.80
2023-03-01T18:21:00.114Z,2.67
2023-03-01T18:23:34.802Z,2.67
2023-03-01T18:26:09.045Z,2.65
2023-03-01T18:28:41.023Z,2.60
2023-03-01T18:31:13.627Z,2.53
2023-03-01T18:33:46.094Z,2.33
2023-03-01T18:36:23.818Z,2.55
2023-03-01T18:38:59.766Z,2.25
2023-03-01T18:41:33.439Z,2.90
2023-03-01T18:44:10.354Z,2.38
2023-03-01T18:46:43.593Z,2.65
2023-03-01T18:49:17.650Z,2.40
2023-03-01T18:51:52.374Z,2.80
2023-03-01T18:54:31.949Z,2.92
2023-03-01T18:57:08.473Z,2.53
2023-03-01T18:59:43.456Z,2.50
2023-03-01T19:02:20.235Z,2.60
2023-03-01T19:04:57.334Z,2.63
2023-03-01T19:07:32.132Z,2.60
2023-03-01T19:10:08.673Z,2.42
2023-03-01T19:12:43.294Z,2.22
2023-03-01T19:15:21.100Z,2.13
2023-03-01T19:17:54.541Z,2.28
2023-03-01T19:20:25.996Z,2.35
2023-03-01T19:22:58.928Z,2.30
2023-03-01T19:25:38.632Z,2.00
2023-03-01T19:28:09.291Z,2.25
2023-03-01T19:30:41.626Z,2.20
2023-03-01T19:33:17.532Z,2.20
2023-03-01T19:35:56.788Z,2.15
2023-03-01T19:38:30.147Z,1.90
2023-03-01T19:41:10.003Z,1.73
2023-03-01T19:43:46.277Z,1.90
2023-03-01T19:46:23.391Z,2.08
2023-03-01T19:49:02.362Z,2.33
2023-03-01T19:51:37.064Z,1.90
2023-03-01T19:54:10.924Z,2.10
2023-03-01T19:56:50.904Z,2.13
2023-03-01T19:59:24.773Z,2.30
2023-03-01T20:01:57.070Z,1.80
2023-03-01T20:04:28.610Z,2.28
2023-03-01T20:07:02.866Z,1.90
2023-03-01T20:09:34.641Z,1.63
2023-03-01T20:12:14.378Z,2.00
2023-03-01T20:14:45.943Z,2.00
2023-03-01T20:17:16.946Z,2.10
2023-03-01T20:19:48.400Z,1.77
2023-03-01T20:22:19.966Z,2.05
2023-03-01T20:24:50.687Z,1.85
2023-03-01T20:27:28.577Z,1.73
2023-03-01T20:30:06.333Z,2.00
2023-03-01T20:32:40.959Z,1.80
2023-03-01T20:35:14.053Z,1.90
2023-03-01T20:37:45.851Z,1.98
2023-03-01T20:40:17.434Z,1.77
2023-03-01T20:42:51.477Z,1.88
2023-03-01T20:45:23.991Z,2.00
2023-03-01T20:47:56.053Z,1.95
2023-03-01T20:50:30.204Z,1.60
2023-03-01T20:53:04.107Z,1.98
2023-03-01T20:55:35.355Z,1.70
2023-03-01T21:00:45.760Z,1.85
2023-03-01T21:03:19.484Z,1.70
2023-03-01T21:05:52.723Z,1.70
2023-03-01T21:08:27.566Z,1.65
2023-03-01T21:11:00.812Z,1.70
2023-03-01T21:13:35.878Z,1.70
2023-03-01T21:16:10.915Z,1.80
2023-03-01T21:18:42.742Z,1.60
2023-03-01T21:21:14.697Z,1.73
2023-03-01T21:23:48.230Z,1.90
2023-03-01T21:26:20.137Z,35.05
2023-03-01T21:28:56.397Z,2.63
2023-03-01T21:31:30.506Z,1.80
2023-03-01T21:34:02.200Z,180.43
2023-03-01T21:36:36.056Z,1.60
2023-03-01T21:39:09.906Z,1.73
2023-03-01T21:41:41.407Z,1.77
2023-03-01T21:44:19.480Z,1.92
2023-03-01T21:46:52.141Z,1.80
2023-03-01T21:49:25.842Z,2.22
2023-03-01T21:52:03.264Z,1.67
2023-03-01T21:54:35.153Z,1.60
2023-03-01T21:57:07.497Z,1.92
2023-03-01T21:59:43.653Z,1.70
2023-03-01T22:02:16.096Z,1.77
2023-03-01T22:04:47.846Z,1.65
2023-03-01T22:07:19.532Z,1.80
2023-03-01T22:12:22.917Z,1.58
2023-03-01T22:14:56.014Z,1.70
2023-03-01T22:17:28.870Z,1.83
2023-03-01T22:20:00.762Z,1.70
2023-03-01T22:22:33.918Z,1.80
2023-03-01T22:25:07.872Z,1.92
2023-03-01T22:27:42.994Z,1.90
2023-03-01T22:30:19.374Z,1.77
2023-03-01T22:32:50.926Z,1.90
2023-03-01T22:37:57.822Z,1.70
2023-03-01T22:40:28.958Z,1.50
2023-03-01T22:43:02.547Z,1.60
2023-03-01T22:45:35.659Z,1.80
2023-03-01T22:48:07.184Z,1.85
2023-03-01T22:50:38.738Z,1.75
2023-03-01T22:53:14.103Z,1.92
2023-03-01T22:55:47.067Z,1.88
2023-03-01T22:58:19.417Z,1.73
2023-03-01T23:00:53.039Z,1.90
2023-03-01T23:03:24.189Z,1.65
2023-03-01T23:05:56.144Z,2.15
2023-03-01T23:08:30.885Z,2.05
2023-03-01T23:11:02.084Z,1.88
2023-03-01T23:13:32.750Z,1.75
2023-03-01T23:16:09.649Z,1.83
2023-03-01T23:18:41.627Z,1.67
2023-03-01T23:23:44.991Z,1.80
2023-03-01T23:26:23.779Z,1.77
2023-03-01T23:28:55.413Z,1.80
2023-03-01T23:31:32.041Z,1.63
2023-03-01T23:34:03.482Z,1.80
2023-03-01T23:36:36.275Z,1.63
2023-03-01T23:39:09.868Z,1.98
2023-03-01T23:41:42.916Z,1.70
2023-03-01T23:44:17.479Z,1.70
2023-03-01T23:46:52.306Z,1.80
2023-03-01T23:49:26.948Z,1.70
2023-03-01T23:51:58.069Z,2.20
2023-03-01T23:54:34.156Z,1.85
2023-03-01T23:57:06.560Z,1.85
2023-03-01T23:59:41.698Z,1.90
